createdAt,value
2018-07-28T00:00:23.876Z,21.32
2018-07-28T00:02:54.665Z,21.27
2018-07-28T00:05:25.643Z,21.23
2018-07-28T00:07:56.648Z,21.22
2018-07-28T00:10:27.746Z,21.20
2018-07-28T00:12:58.680Z,21.19
2018-07-28T00:15:29.613Z,21.16
2018-07-28T00:18:00.565Z,21.15
2018-07-28T00:20:31.596Z,21.14
2018-07-28T00:23:02.870Z,21.13
2018-07-28T00:25:38.691Z,21.10
2018-07-28T00:28:09.001Z,21.09
2018-07-28T00:30:38.924Z,21.05
2018-07-28T00:33:08.780Z,21.02
2018-07-28T00:35:38.748Z,20.97
2018-07-28T00:38:08.634Z,20.93
2018-07-28T00:40:39.636Z,20.91
2018-07-28T00:43:10.616Z,20.90
2018-07-28T00:45:43.002Z,20.88
2018-07-28T00:48:12.834Z,20.86
2018-07-28T00:50:44.040Z,20.84
2018-07-28T00:53:14.830Z,20.83
2018-07-28T00:55:48.643Z,20.81
2018-07-28T00:58:18.541Z,20.81
2018-07-28T01:00:48.593Z,20.79
2018-07-28T01:03:18.486Z,20.78
2018-07-28T01:05:49.865Z,20.78
2018-07-28T01:08:20.673Z,20.77
2018-07-28T01:10:51.676Z,20.76
2018-07-28T01:13:22.526Z,20.74
2018-07-28T01:15:55.030Z,20.73
2018-07-28T01:18:24.876Z,20.70
2018-07-28T01:20:55.845Z,20.69
2018-07-28T01:23:26.698Z,20.67
2018-07-28T01:25:57.589Z,20.65
2018-07-28T01:28:29.930Z,20.64
2018-07-28T01:30:59.964Z,20.63
2018-07-28T01:33:30.739Z,20.61
2018-07-28T01:36:02.681Z,20.59
2018-07-28T01:38:32.847Z,20.58
2018-07-28T01:41:03.742Z,20.54
2018-07-28T01:43:34.610Z,20.52
2018-07-28T01:46:05.629Z,20.48
2018-07-28T01:48:36.945Z,20.48
2018-07-28T01:51:07.872Z,20.45
2018-07-28T01:53:38.687Z,20.43
2018-07-28T01:56:09.758Z,20.42
2018-07-28T01:58:40.733Z,20.41
2018-07-28T02:01:11.616Z,20.39
2018-07-28T02:03:42.867Z,20.36
2018-07-28T02:06:13.751Z,20.34
2018-07-28T02:08:44.679Z,20.33
2018-07-28T02:11:15.617Z,20.32
2018-07-28T02:13:46.602Z,20.28
2018-07-28T02:16:19.064Z,20.25
2018-07-28T02:18:48.918Z,20.21
2018-07-28T02:21:19.803Z,20.15
2018-07-28T02:23:50.648Z,20.14
2018-07-28T02:26:21.709Z,20.12
2018-07-28T02:28:53.686Z,20.12
2018-07-28T02:31:23.840Z,20.11
2018-07-28T02:33:53.778Z,20.11
2018-07-28T02:36:24.661Z,20.09
2018-07-28T02:38:56.522Z,20.09
2018-07-28T02:41:26.490Z,20.08
2018-07-28T02:43:57.952Z,20.10
2018-07-28T02:46:28.805Z,20.08
2018-07-28T02:48:59.631Z,20.07
2018-07-28T02:51:31.051Z,20.05
2018-07-28T02:54:01.742Z,20.04
2018-07-28T02:56:32.626Z,20.04
2018-07-28T02:59:04.540Z,20.04
2018-07-28T03:01:35.059Z,20.03
2018-07-28T03:04:05.881Z,19.93
2018-07-28T03:06:37.639Z,19.97
2018-07-28T03:09:12.039Z,19.99
2018-07-28T03:11:42.532Z,19.97
2018-07-28T03:14:12.328Z,19.97
2018-07-28T03:16:42.656Z,19.95
2018-07-28T03:19:12.514Z,19.95
2018-07-28T03:21:42.585Z,19.92
2018-07-28T03:24:12.478Z,19.90
2018-07-28T03:26:43.893Z,19.89
2018-07-28T03:29:14.644Z,19.88
2018-07-28T03:31:46.328Z,19.87
2018-07-28T03:34:16.851Z,19.86
2018-07-28T03:36:47.689Z,19.84
2018-07-28T03:39:19.981Z,19.82
2018-07-28T03:41:49.857Z,19.81
2018-07-28T03:44:20.740Z,19.82
2018-07-28T03:46:51.606Z,19.83
2018-07-28T03:49:22.907Z,19.81
2018-07-28T03:51:54.191Z,19.83
2018-07-28T03:54:24.982Z,19.82
2018-07-28T03:56:55.863Z,19.81
2018-07-28T03:59:26.675Z,19.82
2018-07-28T04:01:57.615Z,19.83
2018-07-28T04:04:29.507Z,19.83
2018-07-28T04:07:00.033Z,19.83
2018-07-28T04:09:30.723Z,19.85
2018-07-28T04:12:03.137Z,19.86
2018-07-28T04:14:32.945Z,19.87
2018-07-28T04:17:03.910Z,19.87
2018-07-28T04:19:34.701Z,19.89
2018-07-28T04:22:05.706Z,19.91
2018-07-28T04:24:36.612Z,19.92
2018-07-28T04:27:07.586Z,19.95
2018-07-28T04:29:38.890Z,19.95
2018-07-28T04:32:10.215Z,19.94
2018-07-28T04:34:40.850Z,19.97
2018-07-28T04:37:11.792Z,19.95
2018-07-28T04:39:42.785Z,19.54
2018-07-28T04:42:13.689Z,20.00
2018-07-28T04:44:44.513Z,20.02
2018-07-28T04:47:16.096Z,20.05
2018-07-28T04:49:47.283Z,20.00
2018-07-28T04:52:17.880Z,20.13
2018-07-28T04:54:48.713Z,20.16
2018-07-28T04:57:18.615Z,20.22
2018-07-28T04:59:49.554Z,20.24
2018-07-28T05:02:20.939Z,20.29
2018-07-28T05:04:51.777Z,20.34
2018-07-28T05:07:22.737Z,20.38
2018-07-28T05:09:54.054Z,20.39
2018-07-28T05:12:25.313Z,20.39
2018-07-28T05:14:55.899Z,20.43
2018-07-28T05:17:26.820Z,20.46
2018-07-28T05:19:57.719Z,20.53
2018-07-28T05:22:28.742Z,20.58
2018-07-28T05:24:58.657Z,20.65
2018-07-28T05:27:30.597Z,20.70
2018-07-28T05:30:00.517Z,20.73
2018-07-28T05:32:31.905Z,20.79
2018-07-28T05:35:02.764Z,20.84
2018-07-28T05:37:33.678Z,20.92
2018-07-28T05:40:04.771Z,20.97
2018-07-28T05:42:35.822Z,21.02
2018-07-28T05:45:07.348Z,21.09
2018-07-28T05:47:37.869Z,21.16
2018-07-28T05:50:09.881Z,21.24
2018-07-28T05:52:40.026Z,21.33
2018-07-28T05:55:10.872Z,21.37
2018-07-28T05:57:41.746Z,21.43
2018-07-28T06:00:12.795Z,21.51
2018-07-28T06:02:43.899Z,21.47
2018-07-28T06:05:15.000Z,21.64
2018-07-28T06:07:45.979Z,21.71
2018-07-28T06:10:16.947Z,21.77
2018-07-28T06:12:47.917Z,21.83
2018-07-28T06:15:18.760Z,21.88
2018-07-28T06:17:48.674Z,22.01
2018-07-28T06:20:19.615Z,22.05
2018-07-28T06:22:50.976Z,22.10
2018-07-28T06:25:21.852Z,22.22
2018-07-28T06:27:52.754Z,22.28
2018-07-28T06:30:23.838Z,22.25
2018-07-28T06:32:54.826Z,22.39
2018-07-28T06:35:25.738Z,22.60
2018-07-28T06:37:56.687Z,22.62
2018-07-28T06:40:27.669Z,22.69
2018-07-28T06:42:58.636Z,22.84
2018-07-28T06:45:28.474Z,22.88
2018-07-28T06:47:59.946Z,22.99
2018-07-28T06:50:30.813Z,23.06
2018-07-28T06:53:02.130Z,23.10
2018-07-28T06:55:32.882Z,23.17
2018-07-28T06:58:03.798Z,23.22
2018-07-28T07:00:34.808Z,23.33
2018-07-28T07:03:05.818Z,23.40
2018-07-28T07:05:36.653Z,23.45
2018-07-28T07:08:07.633Z,23.49
2018-07-28T07:10:38.583Z,23.53
2018-07-28T07:13:09.715Z,23.62
2018-07-28T07:15:40.551Z,23.70
2018-07-28T07:18:12.144Z,23.75
2018-07-28T07:20:42.841Z,23.53
2018-07-28T07:23:14.034Z,23.97
2018-07-28T07:25:44.746Z,24.10
2018-07-28T07:28:15.976Z,24.16
2018-07-28T07:30:46.845Z,24.25
2018-07-28T07:33:17.937Z,24.40
2018-07-28T07:35:48.724Z,24.53
2018-07-28T07:38:19.722Z,24.65
2018-07-28T07:40:50.643Z,24.77
2018-07-28T07:43:22.578Z,24.76
2018-07-28T07:45:52.966Z,24.91
2018-07-28T07:48:23.865Z,25.00
2018-07-28T07:50:54.700Z,25.14
2018-07-28T07:53:25.683Z,25.24
2018-07-28T07:55:56.564Z,25.24
2018-07-28T07:58:28.077Z,25.30
2018-07-28T08:00:58.780Z,25.28
2018-07-28T08:03:29.675Z,25.49
2018-07-28T08:06:00.590Z,25.63
2018-07-28T08:08:31.940Z,25.73
2018-07-28T08:11:03.083Z,25.74
2018-07-28T08:13:33.861Z,25.82
2018-07-28T08:16:04.733Z,26.00
2018-07-28T08:18:35.713Z,26.06
2018-07-28T08:21:06.748Z,26.10
2018-07-28T08:23:38.306Z,26.26
2018-07-28T08:26:08.918Z,26.47
2018-07-28T08:28:40.066Z,26.58
2018-07-28T08:31:10.702Z,26.73
2018-07-28T08:33:41.615Z,26.92
2018-07-28T08:36:12.591Z,26.95
2018-07-28T08:38:44.311Z,26.99
2018-07-28T08:41:14.848Z,26.91
2018-07-28T08:43:45.964Z,27.04
2018-07-28T08:46:17.108Z,27.26
2018-07-28T08:48:48.218Z,27.42
2018-07-28T08:51:18.809Z,27.42
2018-07-28T08:53:49.673Z,27.47
2018-07-28T08:56:20.617Z,27.59
2018-07-28T08:58:53.634Z,27.72
2018-07-28T09:01:23.609Z,27.74
2018-07-28T09:03:53.696Z,27.85
2018-07-28T09:06:24.773Z,27.93
2018-07-28T09:08:55.709Z,28.03
2018-07-28T09:11:26.571Z,28.15
2018-07-28T09:13:57.941Z,28.25
2018-07-28T09:16:28.816Z,28.38
2018-07-28T09:18:59.873Z,28.51
2018-07-28T09:21:31.080Z,28.70
2018-07-28T09:24:01.954Z,28.69
2018-07-28T09:26:32.774Z,28.79
2018-07-28T09:29:03.709Z,28.94
2018-07-28T09:31:34.431Z,29.08
2018-07-28T09:34:04.952Z,29.23
2018-07-28T09:36:36.192Z,29.32
2018-07-28T09:39:10.113Z,29.43
2018-07-28T09:41:39.981Z,29.44
2018-07-28T09:44:09.838Z,29.56
2018-07-28T09:46:39.710Z,29.52
2018-07-28T09:49:10.743Z,29.64
2018-07-28T09:51:41.602Z,29.84
2018-07-28T09:54:23.373Z,29.87
2018-07-28T09:56:53.140Z,29.89
2018-07-28T09:59:24.798Z,30.19
2018-07-28T10:01:54.712Z,30.52
2018-07-28T10:04:24.670Z,30.73
2018-07-28T10:06:54.596Z,30.83
2018-07-28T10:09:24.501Z,30.91
2018-07-28T10:11:54.351Z,30.91
2018-07-28T10:14:24.333Z,30.97
2018-07-28T10:16:54.261Z,30.99
2018-07-28T10:19:24.685Z,31.05
2018-07-28T10:21:54.499Z,31.02
2018-07-28T10:24:25.336Z,31.03
2018-07-28T10:26:55.304Z,31.13
2018-07-28T10:29:25.227Z,31.20
2018-07-28T10:31:55.148Z,31.40
2018-07-28T10:34:25.805Z,31.46
2018-07-28T10:36:56.732Z,31.56
2018-07-28T10:39:27.538Z,31.58
2018-07-28T10:41:59.601Z,31.60
2018-07-28T10:44:32.168Z,31.62
2018-07-28T10:47:02.476Z,31.64
2018-07-28T10:49:32.431Z,31.54
2018-07-28T10:52:20.903Z,31.66
2018-07-28T10:54:51.669Z,31.61
2018-07-28T10:57:24.286Z,31.58
2018-07-28T10:59:55.332Z,31.58
2018-07-28T11:02:25.384Z,31.95
2018-07-28T11:04:55.226Z,31.91
2018-07-28T11:07:25.108Z,32.08
2018-07-28T11:09:55.358Z,32.37
2018-07-28T11:12:25.706Z,32.52
2018-07-28T11:14:55.857Z,32.79
2018-07-28T11:17:26.362Z,32.89
2018-07-28T11:19:56.581Z,33.12
2018-07-28T11:22:26.459Z,33.40
2018-07-28T11:24:56.564Z,33.48
2018-07-28T11:27:26.409Z,33.24
2018-07-28T11:29:56.928Z,33.52
2018-07-28T11:32:37.244Z,33.52
2018-07-28T11:48:16.481Z,33.81
2018-07-28T11:50:46.334Z,33.10
2018-07-28T11:53:16.261Z,33.17
2018-07-28T11:55:46.164Z,33.18
2018-07-28T11:58:16.562Z,33.17
2018-07-28T12:00:46.788Z,33.26
2018-07-28T12:03:16.952Z,33.39
2018-07-28T12:05:46.818Z,33.55
2018-07-28T12:08:16.898Z,33.43
2018-07-28T12:10:46.844Z,33.48
2018-07-28T12:13:16.902Z,33.63
2018-07-28T12:15:46.769Z,33.55
2018-07-28T12:18:16.916Z,33.60
2018-07-28T12:20:46.970Z,33.75
2018-07-28T12:23:16.792Z,33.95
2018-07-28T12:25:46.911Z,34.15
2018-07-28T12:28:16.830Z,34.00
2018-07-28T12:30:47.453Z,34.11
2018-07-28T12:33:17.289Z,34.26
2018-07-28T12:35:47.097Z,34.48
2018-07-28T12:38:16.980Z,34.67
2018-07-28T12:40:46.834Z,34.88
2018-07-28T12:43:16.941Z,35.00
2018-07-28T12:45:46.801Z,35.25
2018-07-28T12:48:16.897Z,35.47
2018-07-28T12:50:46.805Z,35.54
2018-07-28T12:53:16.878Z,35.67
2018-07-28T12:55:46.837Z,35.61
2018-07-28T12:58:17.740Z,35.56
2018-07-28T13:00:47.913Z,35.46
2018-07-28T13:03:17.869Z,35.39
2018-07-28T13:05:47.790Z,35.68
2018-07-28T13:08:17.802Z,35.74
2018-07-28T13:10:47.788Z,35.70
2018-07-28T13:13:17.820Z,35.63
2018-07-28T13:15:47.800Z,35.65
2018-07-28T13:18:17.821Z,35.72
2018-07-28T13:20:47.890Z,35.53
2018-07-28T13:23:18.092Z,35.46
2018-07-28T13:25:48.160Z,35.02
2018-07-28T13:28:17.998Z,34.92
2018-07-28T13:30:47.989Z,34.85
2018-07-28T13:33:17.933Z,34.95
2018-07-28T13:35:48.338Z,34.53
2018-07-28T13:38:18.269Z,34.82
2018-07-28T13:40:48.279Z,34.56
2018-07-28T13:43:18.264Z,34.76
2018-07-28T13:45:48.373Z,35.02
2018-07-28T13:48:18.216Z,35.19
2018-07-28T13:50:48.549Z,35.28
2018-07-28T13:53:18.986Z,35.41
2018-07-28T13:55:48.802Z,35.22
2018-07-28T13:58:19.613Z,35.45
2018-07-28T14:00:49.488Z,35.39
2018-07-28T14:03:19.440Z,35.51
2018-07-28T14:05:49.315Z,35.53
2018-07-28T14:08:19.823Z,35.35
2018-07-28T14:10:50.574Z,35.18
2018-07-28T14:13:21.563Z,34.89
2018-07-28T14:15:52.685Z,35.01
2018-07-28T14:18:23.746Z,35.08
2018-07-28T14:20:54.898Z,35.12
2018-07-28T14:23:25.890Z,35.25
2018-07-28T14:25:56.965Z,35.23
2018-07-28T14:28:28.638Z,35.06
2018-07-28T14:30:58.677Z,35.05
2018-07-28T14:33:29.558Z,35.05
2018-07-28T14:36:00.580Z,34.99
2018-07-28T14:38:31.593Z,35.05
2018-07-28T14:41:04.181Z,35.11
2018-07-28T14:43:34.172Z,35.23
2018-07-28T14:46:04.871Z,35.19
2018-07-28T14:48:35.904Z,35.06
2018-07-28T14:51:06.838Z,35.28
2018-07-28T14:53:37.814Z,35.31
2018-07-28T14:56:08.652Z,35.40
2018-07-28T14:58:39.954Z,35.49
2018-07-28T15:01:10.705Z,35.66
2018-07-28T15:03:41.565Z,35.84
2018-07-28T15:06:12.561Z,35.88
2018-07-28T15:08:43.550Z,35.78
2018-07-28T15:11:15.485Z,35.53
2018-07-28T15:13:45.477Z,35.27
2018-07-28T15:16:17.510Z,35.09
2018-07-28T15:18:49.019Z,34.89
2018-07-28T15:21:18.861Z,34.81
2018-07-28T15:23:50.710Z,34.40
2018-07-28T15:26:20.552Z,34.65
2018-07-28T15:28:53.118Z,34.49
2018-07-28T15:31:23.673Z,34.25
2018-07-28T15:33:53.524Z,34.16
2018-07-28T15:36:24.023Z,33.90
2018-07-28T15:38:54.756Z,33.83
2018-07-28T15:41:25.610Z,33.64
2018-07-28T15:43:56.629Z,33.57
2018-07-28T15:46:27.869Z,33.45
2018-07-28T15:48:57.822Z,33.34
2018-07-28T15:51:28.589Z,33.21
2018-07-28T15:53:59.706Z,33.15
2018-07-28T15:56:30.605Z,33.08
2018-07-28T15:59:01.940Z,32.99
2018-07-28T16:01:32.746Z,32.90
2018-07-28T16:04:03.590Z,32.82
2018-07-28T16:06:34.594Z,32.72
2018-07-28T16:09:08.693Z,32.68
2018-07-28T16:11:38.535Z,32.59
2018-07-28T16:14:08.491Z,32.52
2018-07-28T16:16:38.902Z,32.45
2018-07-28T16:19:09.696Z,32.28
2018-07-28T16:21:41.164Z,32.35
2018-07-28T16:24:11.852Z,32.35
2018-07-28T16:26:42.712Z,32.41
2018-07-28T16:29:13.680Z,32.51
2018-07-28T16:31:45.253Z,32.52
2018-07-28T16:34:15.991Z,32.53
2018-07-28T16:36:46.885Z,32.71
2018-07-28T16:39:17.757Z,32.88
2018-07-28T16:41:48.626Z,32.95
2018-07-28T16:44:19.558Z,32.94
2018-07-28T16:46:50.594Z,32.94
2018-07-28T16:49:21.545Z,32.95
2018-07-28T16:51:52.573Z,33.02
2018-07-28T16:54:23.937Z,33.04
2018-07-28T16:56:55.667Z,33.03
2018-07-28T16:59:25.577Z,33.08
2018-07-28T17:01:56.488Z,33.12
2018-07-28T17:04:28.080Z,33.05
2018-07-28T17:06:58.727Z,32.81
2018-07-28T17:09:30.157Z,32.72
2018-07-28T17:11:59.989Z,32.81
2018-07-28T17:14:30.882Z,32.73
2018-07-28T17:17:01.665Z,32.50
2018-07-28T17:19:32.678Z,32.49
2018-07-28T17:22:03.549Z,32.41
2018-07-28T17:24:34.952Z,32.36
2018-07-28T17:27:05.774Z,32.37
2018-07-28T17:29:36.675Z,32.44
2018-07-28T17:32:08.610Z,32.47
2018-07-28T17:34:38.605Z,32.38
2018-07-28T17:37:09.901Z,32.30
2018-07-28T17:39:40.759Z,32.25
2018-07-28T17:42:11.665Z,32.30
2018-07-28T17:44:42.713Z,32.26
2018-07-28T17:47:13.941Z,32.24
2018-07-28T17:49:44.736Z,32.17
2018-07-28T17:52:15.648Z,32.12
2018-07-28T17:54:46.548Z,32.08
2018-07-28T17:57:18.854Z,32.05
2018-07-28T17:59:48.913Z,31.99
2018-07-28T18:02:19.770Z,31.93
2018-07-28T18:04:50.635Z,31.85
2018-07-28T18:07:22.165Z,31.75
2018-07-28T18:09:52.951Z,31.71
2018-07-28T18:12:23.773Z,31.53
2018-07-28T18:14:54.600Z,31.45
2018-07-28T18:17:25.461Z,31.42
2018-07-28T18:19:56.893Z,31.34
2018-07-28T18:22:27.728Z,31.29
2018-07-28T18:25:06.552Z,31.21
2018-07-28T18:27:36.345Z,31.10
2018-07-28T18:30:06.500Z,31.04
2018-07-28T18:32:36.287Z,30.97
2018-07-28T18:35:06.977Z,30.88
2018-07-28T18:37:37.716Z,30.82
2018-07-28T18:40:07.935Z,30.75
2018-07-28T18:42:37.824Z,30.67
2018-07-28T18:45:07.925Z,30.59
2018-07-28T18:47:37.945Z,30.51
2018-07-28T18:50:08.848Z,30.41
2018-07-28T18:52:39.734Z,30.34
2018-07-28T18:55:11.132Z,30.27
2018-07-28T18:57:41.960Z,30.18
2018-07-28T19:00:13.276Z,30.10
2018-07-28T19:02:44.972Z,30.01
2018-07-28T19:05:14.973Z,29.91
2018-07-28T19:07:45.929Z,29.69
2018-07-28T19:10:18.055Z,29.76
2018-07-28T19:12:52.993Z,29.66
2018-07-28T19:15:22.886Z,29.56
2018-07-28T19:18:57.266Z,29.47
2018-07-28T19:21:27.271Z,29.36
2018-07-28T19:24:01.424Z,29.29
2018-07-28T19:26:32.035Z,29.21
2018-07-28T19:29:06.958Z,29.13
2018-07-28T19:31:37.130Z,29.03
2018-07-28T19:34:07.084Z,28.97
2018-07-28T19:36:42.161Z,28.91
2018-07-28T19:39:13.183Z,28.83
2018-07-28T19:41:47.949Z,28.77
2018-07-28T19:44:18.137Z,28.68
2018-07-28T19:46:48.125Z,28.60
2018-07-28T19:49:18.354Z,28.54
2018-07-28T19:51:48.281Z,28.45
2018-07-28T19:54:18.196Z,28.42
2018-07-28T19:56:48.379Z,28.36
2018-07-28T19:59:18.405Z,28.28
2018-07-28T20:01:48.481Z,28.19
2018-07-28T20:04:18.472Z,28.11
2018-07-28T20:06:48.504Z,28.01
2018-07-28T20:09:18.974Z,27.94
2018-07-28T20:11:49.003Z,27.89
2018-07-28T20:14:18.864Z,27.82
2018-07-28T20:16:49.062Z,27.72
2018-07-28T20:19:18.984Z,27.69
2018-07-28T20:21:49.401Z,27.58
2018-07-28T20:24:19.238Z,27.52
2018-07-28T20:26:49.134Z,27.46
2018-07-28T20:29:19.149Z,27.38
2018-07-28T20:31:49.112Z,27.34
2018-07-28T20:34:19.085Z,27.30
2018-07-28T20:36:49.032Z,27.24
2018-07-28T20:39:18.979Z,27.16
2018-07-28T20:41:49.001Z,27.13
2018-07-28T20:44:19.061Z,27.06
2018-07-28T20:46:48.975Z,27.00
2018-07-28T20:49:18.898Z,26.94
2018-07-28T20:51:48.867Z,26.88
2018-07-28T20:54:19.010Z,26.84
2018-07-28T20:56:48.873Z,26.80
2018-07-28T20:59:18.925Z,26.76
2018-07-28T21:01:49.054Z,26.71
2018-07-28T21:04:19.078Z,26.65
2018-07-28T21:06:49.113Z,26.53
2018-07-28T21:09:19.042Z,26.49
2018-07-28T21:11:49.183Z,26.47
2018-07-28T21:14:19.227Z,26.45
2018-07-28T21:16:49.313Z,26.42
2018-07-28T21:19:19.104Z,26.39
2018-07-28T21:21:49.004Z,26.36
2018-07-28T21:24:19.207Z,26.31
2018-07-28T21:26:49.219Z,26.28
2018-07-28T21:29:19.323Z,26.23
2018-07-28T21:31:49.101Z,26.17
2018-07-28T21:34:19.333Z,26.15
2018-07-28T21:36:49.211Z,26.07
2018-07-28T21:39:19.706Z,26.02
2018-07-28T21:41:49.981Z,25.98
2018-07-28T21:44:20.284Z,25.92
2018-07-28T21:46:50.120Z,25.86
2018-07-28T21:49:20.142Z,25.82
2018-07-28T21:51:50.109Z,25.78
2018-07-28T21:54:20.152Z,25.74
2018-07-28T21:56:50.027Z,25.72
2018-07-28T21:59:20.070Z,25.69
2018-07-28T22:01:50.027Z,25.66
2018-07-28T22:04:25.187Z,25.58
2018-07-28T22:06:55.201Z,25.55
2018-07-28T22:09:25.407Z,25.52
2018-07-28T22:11:55.483Z,25.49
2018-07-28T22:14:25.527Z,25.45
2018-07-28T22:16:55.825Z,25.42
2018-07-28T22:19:25.955Z,25.38
2018-07-28T22:21:55.950Z,25.35
2018-07-28T22:24:25.997Z,25.30
2018-07-28T22:26:55.856Z,25.26
2018-07-28T22:29:25.891Z,25.23
2018-07-28T22:31:55.812Z,25.16
2018-07-28T22:34:25.905Z,25.09
2018-07-28T22:36:55.985Z,25.03
2018-07-28T22:39:25.960Z,24.99
2018-07-28T22:41:55.800Z,25.00
2018-07-28T22:44:25.913Z,24.94
2018-07-28T22:46:56.055Z,24.91
2018-07-28T22:49:27.020Z,24.88
2018-07-28T22:51:57.297Z,24.85
2018-07-28T22:54:27.748Z,24.81
2018-07-28T22:56:57.846Z,24.80
2018-07-28T22:59:28.026Z,24.77
2018-07-28T23:01:57.960Z,24.74
2018-07-28T23:04:27.840Z,24.69
2018-07-28T23:06:58.235Z,24.64
2018-07-28T23:09:28.642Z,24.61
2018-07-28T23:11:58.571Z,24.56
2018-07-28T23:14:28.907Z,24.50
2018-07-28T23:16:58.767Z,24.41
2018-07-28T23:19:28.665Z,24.36
2018-07-28T23:21:58.507Z,24.34
2018-07-28T23:24:28.467Z,24.30
2018-07-28T23:26:58.416Z,24.27
2018-07-28T23:29:28.458Z,24.21
2018-07-28T23:31:58.368Z,24.07
2018-07-28T23:34:29.325Z,24.01
2018-07-28T23:37:00.042Z,24.01
2018-07-28T23:39:33.472Z,23.98
2018-07-28T23:42:03.849Z,23.95
2018-07-28T23:44:33.796Z,23.96
2018-07-28T23:47:03.720Z,23.87
2018-07-28T23:49:34.760Z,23.88
2018-07-28T23:52:05.737Z,23.83
2018-07-28T23:54:36.714Z,23.44
2018-07-28T23:57:07.768Z,23.48
2018-07-28T23:59:38.769Z,23.57
